Time;durP1;ratioP1;P1;durP2;ratioP2;P2;SDS_P1;SDS_P2;PMS_P1;PMS_P2;Temp;Humidity;BMP_temperature;BMP_pressure;BME280_temperature;BME280_humidity;BME280_pressure;Samples;Min_cycle;Max_cycle;Signal;HPM_P1;HPM_P2
2022/01/26 00:06:46;;;;;;;44.83;35.27;;;-1.90;99.90;;;;;;5071010;28;20505;-81
2022/01/26 00:09:13;;;;;;;41.67;34.23;;;-1.90;99.90;;;;;;5057024;28;20460;-81
2022/01/26 00:11:41;;;;;;;37.03;33.00;;;-2.00;99.90;;;;;;5057169;28;20460;-81
2022/01/26 00:14:13;;;;;;;45.13;35.03;;;-2.00;99.90;;;;;;5099567;22;20464;-78
2022/01/26 00:16:42;;;;;;;42.53;34.63;;;-2.00;99.90;;;;;;5092588;28;20474;-79
2022/01/26 00:19:12;;;;;;;40.73;32.70;;;-2.00;99.90;;;;;;5087542;28;20871;-80
2022/01/26 00:21:44;;;;;;;38.93;32.13;;;-2.10;99.90;;;;;;5093841;28;20439;-80
2022/01/26 00:27:20;;;;;;;39.30;33.00;;;-2.10;99.90;;;;;;5065913;28;20516;-80
2022/01/26 00:30:00;;;;;;;41.37;31.47;;;-2.20;99.90;;;;;;5061682;28;20465;-79
2022/01/26 00:40:50;;;;;;;44.23;35.00;;;-2.30;99.90;;;;;;5068109;28;20424;-79
2022/01/26 00:43:21;;;;;;;39.73;33.00;;;-2.40;99.90;;;;;;5065243;28;20476;-80
2022/01/26 00:45:55;;;;;;;39.07;30.87;;;-2.40;99.90;;;;;;5069877;28;20551;-79
2022/01/26 00:48:23;;;;;;;38.63;32.47;;;-2.30;99.90;;;;;;5064051;28;20556;-78
2022/01/26 00:50:52;;;;;;;43.50;33.47;;;-2.30;99.90;;;;;;5065899;28;20468;-80
2022/01/26 00:53:20;;;;;;;38.97;32.70;;;-2.40;99.90;;;;;;5064853;28;20450;-80
2022/01/26 00:55:47;;;;;;;41.40;33.37;;;-2.40;99.90;;;;;;5068201;28;20453;-79
2022/01/26 00:58:13;;;;;;;45.80;33.07;;;-2.40;99.90;;;;;;5070401;28;20498;-78
2022/01/26 01:00:40;;;;;;;44.30;33.07;;;-2.50;99.90;;;;;;5067327;28;20921;-80
2022/01/26 01:03:09;;;;;;;41.80;32.47;;;-2.50;99.90;;;;;;5066465;28;20444;-79
2022/01/26 01:05:41;;;;;;;40.70;31.93;;;-2.50;99.90;;;;;;5069126;28;21054;-79
2022/01/26 01:08:12;;;;;;;40.07;34.23;;;-2.40;99.90;;;;;;5068723;28;20563;-80
2022/01/26 01:10:40;;;;;;;39.37;33.47;;;-2.50;99.90;;;;;;5068586;28;20433;-80
2022/01/26 01:13:14;;;;;;;40.60;33.00;;;-2.50;99.90;;;;;;5068667;28;20461;-79
2022/01/26 01:15:42;;;;;;;52.77;32.77;;;-2.50;99.90;;;;;;5073374;28;20495;-80
2022/01/26 01:18:18;;;;;;;40.57;32.97;;;-2.50;99.90;;;;;;5074554;28;20827;-79
2022/01/26 01:21:22;;;;;;;49.57;34.10;;;-2.60;99.90;;;;;;5070307;28;20882;-79
2022/01/26 01:24:03;;;;;;;38.70;31.93;;;-2.60;99.90;;;;;;5070637;28;20441;-80
2022/01/26 01:26:57;;;;;;;40.47;31.67;;;-2.60;99.90;;;;;;5068217;28;20452;-79
2022/01/26 01:29:26;;;;;;;39.97;31.20;;;-2.60;99.90;;;;;;5068746;28;20453;-78
2022/01/26 01:31:56;;;;;;;35.93;30.17;;;-2.60;99.90;;;;;;5071247;28;20449;-79
2022/01/26 01:34:27;;;;;;;33.77;29.33;;;-2.60;99.90;;;;;;5068569;28;20436;-80
2022/01/26 01:37:01;;;;;;;39.50;32.50;;;-2.60;99.90;;;;;;5073421;28;20445;-79
2022/01/26 01:39:29;;;;;;;40.47;32.77;;;-2.50;99.90;;;;;;5066424;28;20965;-80
2022/01/26 01:41:56;;;;;;;37.63;31.83;;;-2.50;99.90;;;;;;5070529;28;20434;-79
2022/01/26 01:44:23;;;;;;;47.93;33.87;;;-2.50;99.90;;;;;;5073265;28;20452;-79
2022/01/26 01:46:51;;;;;;;57.07;32.03;;;-2.50;99.90;;;;;;5068490;28;20433;-79
2022/01/26 01:49:18;;;;;;;36.80;30.27;;;-2.50;99.90;;;;;;5073430;28;20464;-79
2022/01/26 01:51:51;;;;;;;39.87;32.43;;;-2.40;99.90;;;;;;5070461;28;20453;-79
2022/01/26 01:54:19;;;;;;;40.07;31.90;;;-2.40;99.90;;;;;;5067493;28;20453;-80
2022/01/26 01:56:49;;;;;;;58.80;34.13;;;-2.30;99.90;;;;;;5081557;28;20449;-78
2022/01/26 01:59:16;;;;;;;40.23;29.73;;;-2.30;99.90;;;;;;5067166;28;20441;-79
2022/01/26 02:01:43;;;;;;;39.13;31.90;;;-2.30;99.90;;;;;;5070658;28;20434;-80
2022/01/26 02:04:10;;;;;;;36.23;30.67;;;-2.20;99.90;;;;;;5071616;28;20479;-79
2022/01/26 02:06:37;;;;;;;40.23;32.00;;;-2.20;99.90;;;;;;5067976;28;20445;-79
2022/01/26 02:09:06;;;;;;;43.70;33.53;;;-2.20;99.90;;;;;;5073537;28;20480;-79
2022/01/26 02:11:33;;;;;;;34.03;29.90;;;-2.20;99.90;;;;;;5070862;28;20449;-80
2022/01/26 02:14:03;;;;;;;37.13;31.20;;;-2.20;99.90;;;;;;5066769;28;20957;-80
2022/01/26 02:16:37;;;;;;;38.00;31.57;;;-2.20;99.90;;;;;;5065570;28;20495;-80
2022/01/26 02:19:41;;;;;;;35.67;30.83;;;-2.10;99.90;;;;;;5073190;28;20532;-79
2022/01/26 02:50:06;;;;;;;68.77;33.50;;;-2.00;99.90;;;;;;5072929;28;20468;-79
2022/01/26 02:52:47;;;;;;;43.83;32.43;;;-2.00;99.90;;;;;;5068101;28;20458;-78
2022/01/26 02:55:24;;;;;;;38.90;32.67;;;-2.00;99.90;;;;;;5071867;28;20460;-79
2022/01/26 02:58:22;;;;;;;46.67;34.47;;;-1.90;99.90;;;;;;5069384;28;20456;-79
2022/01/26 03:01:00;;;;;;;46.90;32.83;;;-2.00;99.90;;;;;;5065631;28;20543;-79
2022/01/26 03:03:32;;;;;;;47.03;33.10;;;-2.00;99.90;;;;;;5066354;28;20452;-79
2022/01/26 03:06:03;;;;;;;42.63;32.70;;;-2.00;99.90;;;;;;5069639;28;20908;-79
2022/01/26 03:08:34;;;;;;;38.77;31.53;;;-1.90;99.90;;;;;;5066603;28;20476;-79
2022/01/26 03:11:07;;;;;;;42.13;31.57;;;-2.00;99.90;;;;;;5080321;28;20973;-80
2022/01/26 03:13:37;;;;;;;35.20;29.07;;;-1.90;99.90;;;;;;5066462;28;20544;-79
2022/01/26 03:16:10;;;;;;;35.73;28.57;;;-1.90;99.90;;;;;;5065371;28;20474;-79
2022/01/26 03:19:01;;;;;;;32.90;26.93;;;-1.90;99.90;;;;;;5063390;28;20437;-80
2022/01/26 03:21:35;;;;;;;37.50;27.37;;;-1.90;99.90;;;;;;5061431;28;20544;-78
2022/01/26 03:29:57;;;;;;;36.93;27.80;;;-2.00;99.90;;;;;;5072645;28;21036;-79
2022/01/26 03:35:15;;;;;;;34.37;26.50;;;-1.90;99.90;;;;;;5060107;28;20462;-79
2022/01/26 03:37:51;;;;;;;34.70;27.00;;;-1.90;99.90;;;;;;5068876;28;20441;-79
2022/01/26 03:40:28;;;;;;;37.23;28.03;;;-1.90;99.90;;;;;;5073143;28;20445;-80
2022/01/26 03:42:56;;;;;;;37.70;29.13;;;-1.90;99.90;;;;;;5075281;28;20523;-84
2022/01/26 03:45:25;;;;;;;40.90;29.13;;;-1.90;99.90;;;;;;5076235;28;20477;-86
2022/01/26 03:47:52;;;;;;;52.00;29.77;;;-1.90;99.90;;;;;;5068096;28;20550;-85
2022/01/26 03:50:19;;;;;;;34.83;28.53;;;-1.90;99.90;;;;;;5070437;28;20433;-84
2022/01/26 03:52:46;;;;;;;34.67;27.40;;;-1.90;99.90;;;;;;5075137;28;20502;-83
2022/01/26 03:55:13;;;;;;;36.80;28.00;;;-1.90;99.90;;;;;;5071018;28;20484;-84
2022/01/26 03:57:40;;;;;;;43.60;28.90;;;-1.80;99.90;;;;;;5072563;28;20448;-85
2022/01/26 04:04:02;;;;;;;34.03;25.97;;;-1.90;99.90;;;;;;5022123;28;20434;-86
2022/01/26 04:06:42;;;;;;;31.97;26.20;;;-1.80;99.90;;;;;;5030626;28;20536;-78
2022/01/26 04:09:11;;;;;;;35.50;28.13;;;-1.90;99.90;;;;;;5073190;28;20846;-81
2022/01/26 04:11:41;;;;;;;39.53;29.67;;;-1.80;99.90;;;;;;5072928;28;20956;-80
2022/01/26 04:14:12;;;;;;;35.30;28.57;;;-1.70;99.90;;;;;;5073680;28;20486;-80
2022/01/26 04:16:40;;;;;;;35.17;29.43;;;-1.70;99.90;;;;;;5065946;28;20461;-80
2022/01/26 04:19:09;;;;;;;34.47;28.47;;;-1.70;99.90;;;;;;5071848;28;20575;-81
2022/01/26 04:21:50;;;;;;;35.93;29.00;;;-1.70;99.90;;;;;;5072043;28;20968;-79
2022/01/26 04:24:21;;;;;;;39.23;29.23;;;-1.70;99.90;;;;;;5073195;28;20991;-80
2022/01/26 04:26:52;;;;;;;40.60;31.13;;;-1.70;99.90;;;;;;5067613;28;20532;-79
2022/01/26 04:29:24;;;;;;;38.63;28.50;;;-1.70;99.90;;;;;;5067508;28;20484;-80
2022/01/26 04:31:51;;;;;;;34.73;27.17;;;-1.70;99.90;;;;;;5068525;28;20485;-80
2022/01/26 04:34:19;;;;;;;32.20;27.03;;;-1.70;99.90;;;;;;5065738;28;20483;-86
2022/01/26 04:36:52;;;;;;;40.63;30.20;;;-1.60;99.90;;;;;;5067287;28;20473;-81
2022/01/26 04:39:23;;;;;;;40.10;29.00;;;-1.50;99.90;;;;;;5070144;28;20440;-81
2022/01/26 04:41:54;;;;;;;39.93;28.53;;;-1.60;99.90;;;;;;5068290;28;20945;-82
2022/01/26 04:44:23;;;;;;;36.70;27.37;;;-1.60;99.90;;;;;;5077031;28;20437;-86
2022/01/26 04:46:51;;;;;;;41.10;28.00;;;-1.60;99.90;;;;;;5071379;28;20822;-81
2022/01/26 04:49:19;;;;;;;33.90;28.47;;;-1.60;99.90;;;;;;5078138;28;20525;-81
2022/01/26 04:51:47;;;;;;;37.83;28.97;;;-1.50;99.90;;;;;;5070948;28;20449;-80
2022/01/26 04:54:14;;;;;;;33.53;28.03;;;-1.50;99.90;;;;;;5073363;28;20445;-80
2022/01/26 04:56:42;;;;;;;36.60;26.97;;;-1.50;99.90;;;;;;5072045;28;20445;-81
2022/01/26 04:59:09;;;;;;;31.93;26.80;;;-1.50;99.90;;;;;;5068803;28;20441;-79
2022/01/26 05:01:36;;;;;;;33.77;27.50;;;-1.50;99.90;;;;;;5069256;28;20429;-79
2022/01/26 05:04:03;;;;;;;38.20;27.83;;;-1.50;99.90;;;;;;5077554;28;20490;-79
2022/01/26 05:06:31;;;;;;;33.43;27.63;;;-1.50;99.90;;;;;;5084993;28;20440;-79
2022/01/26 05:08:58;;;;;;;33.27;27.17;;;-1.60;99.90;;;;;;5065913;28;20651;-79
2022/01/26 05:11:32;;;;;;;34.90;28.03;;;-1.60;99.90;;;;;;5070196;28;20453;-79
2022/01/26 05:13:59;;;;;;;38.53;28.57;;;-1.60;99.90;;;;;;5074009;28;20981;-79
2022/01/26 05:16:27;;;;;;;42.13;28.67;;;-1.50;99.90;;;;;;5066307;28;20465;-79
2022/01/26 05:18:54;;;;;;;44.50;29.53;;;-1.60;99.90;;;;;;5071928;28;20469;-79
2022/01/26 05:21:21;;;;;;;38.13;27.93;;;-1.60;99.90;;;;;;5093183;28;20445;-79
2022/01/26 05:23:49;;;;;;;36.33;28.03;;;-1.50;99.90;;;;;;5077551;28;20460;-79
2022/01/26 05:26:16;;;;;;;41.43;29.53;;;-1.50;99.90;;;;;;5069237;28;20464;-79
2022/01/26 05:28:43;;;;;;;35.07;27.37;;;-1.50;99.90;;;;;;5069815;28;20894;-79
2022/01/26 05:31:10;;;;;;;44.00;29.00;;;-1.50;99.90;;;;;;5064188;28;20851;-79
2022/01/26 05:33:37;;;;;;;38.97;27.97;;;-1.40;99.90;;;;;;5068357;28;20433;-79
2022/01/26 05:36:05;;;;;;;41.83;28.43;;;-1.30;99.90;;;;;;5068239;28;20450;-79
2022/01/26 05:38:32;;;;;;;34.03;27.90;;;-1.30;99.90;;;;;;5063072;28;20446;-80
2022/01/26 05:41:01;;;;;;;38.77;27.23;;;-1.30;99.90;;;;;;5070876;28;20452;-79
2022/01/26 05:43:29;;;;;;;38.07;26.37;;;-1.40;99.90;;;;;;5066683;28;20449;-77
2022/01/26 05:46:00;;;;;;;38.73;28.27;;;-1.40;99.90;;;;;;5071662;28;20453;-79
2022/01/26 05:48:27;;;;;;;37.57;27.73;;;-1.30;99.90;;;;;;5062837;28;20839;-79
2022/01/26 05:51:03;;;;;;;36.30;28.23;;;-1.40;99.90;;;;;;5069433;28;20445;-79
2022/01/26 05:53:30;;;;;;;43.33;28.67;;;-1.40;99.90;;;;;;5081961;28;21039;-79
2022/01/26 05:55:58;;;;;;;38.63;28.83;;;-1.40;99.90;;;;;;5068299;28;20468;-79
2022/01/26 05:58:27;;;;;;;39.97;29.57;;;-1.40;99.90;;;;;;5073043;28;20491;-79
2022/01/26 06:00:54;;;;;;;37.83;28.40;;;-1.40;99.90;;;;;;5072313;28;20447;-80
2022/01/26 06:03:21;;;;;;;41.27;29.83;;;-1.40;99.90;;;;;;5068474;28;20457;-79
2022/01/26 06:05:48;;;;;;;43.07;29.03;;;-1.40;99.90;;;;;;5068600;28;20518;-79
2022/01/26 06:08:14;;;;;;;45.10;29.90;;;-1.40;99.90;;;;;;5071416;28;20448;-78
2022/01/26 06:10:41;;;;;;;42.67;29.17;;;-1.30;99.90;;;;;;5067378;28;20449;-79
2022/01/26 06:13:08;;;;;;;41.03;28.13;;;-1.30;99.90;;;;;;5066782;28;20454;-79
2022/01/26 06:15:36;;;;;;;37.47;28.70;;;-1.20;99.90;;;;;;5098347;22;20550;-78
2022/01/26 06:18:03;;;;;;;37.43;29.03;;;-1.30;99.90;;;;;;5069302;28;20441;-78
2022/01/26 06:20:30;;;;;;;38.57;27.80;;;-1.30;99.90;;;;;;5072042;28;20445;-78
2022/01/26 06:22:57;;;;;;;38.33;27.33;;;-1.20;99.90;;;;;;5071956;28;20462;-78
2022/01/26 06:25:23;;;;;;;43.03;30.60;;;-1.20;99.90;;;;;;5072450;28;20472;-78
2022/01/26 06:27:54;;;;;;;38.43;29.83;;;-1.20;99.90;;;;;;5065678;28;20933;-78
2022/01/26 06:30:22;;;;;;;37.93;28.80;;;-1.10;99.90;;;;;;5073506;28;20472;-78
2022/01/26 06:32:51;;;;;;;43.83;30.50;;;-1.00;99.90;;;;;;5071952;28;20429;-78
2022/01/26 06:35:18;;;;;;;48.20;31.43;;;-1.00;99.90;;;;;;5073236;28;20449;-78
2022/01/26 06:37:45;;;;;;;35.77;27.70;;;-1.00;99.90;;;;;;5069354;28;20422;-79
2022/01/26 06:40:12;;;;;;;46.67;29.87;;;-1.10;99.90;;;;;;5062466;28;20505;-78
2022/01/26 06:42:51;;;;;;;40.30;27.93;;;-1.10;99.90;;;;;;5066491;28;20903;-78
2022/01/26 06:45:20;;;;;;;41.33;29.87;;;-1.10;99.90;;;;;;5060939;28;20468;-76
2022/01/26 06:50:37;;;;;;;41.03;28.47;;;-1.10;99.90;;;;;;5047775;28;20919;-77
2022/01/26 06:53:07;;;;;;;44.93;30.70;;;-1.10;99.90;;;;;;5056648;28;20459;-79
2022/01/26 06:55:34;;;;;;;40.07;28.37;;;-1.00;99.90;;;;;;5058875;28;20474;-78
2022/01/26 06:58:02;;;;;;;44.53;31.20;;;-1.10;99.90;;;;;;5060785;28;20465;-78
2022/01/26 07:00:29;;;;;;;42.20;30.23;;;-1.10;99.90;;;;;;5060597;28;20922;-78
2022/01/26 07:02:56;;;;;;;47.67;31.60;;;-1.00;99.90;;;;;;5060219;28;20438;-78
2022/01/26 07:05:23;;;;;;;52.63;32.37;;;-1.00;99.90;;;;;;5061759;28;20525;-78
2022/01/26 07:07:51;;;;;;;43.30;30.53;;;-1.00;99.90;;;;;;5060642;28;20848;-77
2022/01/26 07:10:18;;;;;;;43.37;30.10;;;-1.00;99.90;;;;;;5054163;28;20527;-77
2022/01/26 07:12:45;;;;;;;45.93;31.43;;;-1.00;99.90;;;;;;5063862;28;20445;-78
2022/01/26 07:23:29;;;;;;;43.83;29.47;;;-1.10;99.90;;;;;;5037142;28;20989;-79
2022/01/26 07:25:56;;;;;;;36.87;27.10;;;-1.20;99.90;;;;;;5057298;28;20473;-77
2022/01/26 07:28:22;;;;;;;38.53;28.23;;;-1.20;99.90;;;;;;5061449;28;20445;-78
2022/01/26 07:30:50;;;;;;;39.87;29.07;;;-1.10;99.90;;;;;;5060317;28;20438;-77
2022/01/26 07:33:17;;;;;;;47.87;30.00;;;-1.10;99.90;;;;;;5060710;28;20446;-77
2022/01/26 07:35:44;;;;;;;40.93;27.47;;;-1.00;99.90;;;;;;5059971;28;21031;-76
2022/01/26 07:38:10;;;;;;;36.20;27.77;;;-1.00;99.90;;;;;;5063173;28;20505;-78
2022/01/26 07:40:39;;;;;;;39.67;28.67;;;-1.00;99.90;;;;;;5059321;28;20429;-77
2022/01/26 07:43:07;;;;;;;37.17;26.27;;;-1.10;99.90;;;;;;5057565;28;20430;-78
2022/01/26 07:45:34;;;;;;;35.60;26.83;;;-1.10;99.90;;;;;;5060023;28;20450;-78
2022/01/26 07:48:01;;;;;;;35.90;27.17;;;-1.10;99.90;;;;;;5059624;28;20441;-78
2022/01/26 07:50:28;;;;;;;34.17;26.20;;;-1.10;99.90;;;;;;5059904;28;21221;-77
2022/01/26 07:52:54;;;;;;;32.07;25.40;;;-1.00;99.90;;;;;;5059871;28;20814;-78
2022/01/26 07:55:23;;;;;;;38.40;28.27;;;-1.00;99.90;;;;;;5063405;28;20453;-77
2022/01/26 07:57:52;;;;;;;34.23;27.23;;;-1.00;99.90;;;;;;5061141;28;20430;-78
2022/01/26 08:00:19;;;;;;;37.37;27.40;;;-1.00;99.90;;;;;;5057373;28;20431;-77
2022/01/26 08:02:47;;;;;;;41.83;27.47;;;-0.90;99.90;;;;;;5058577;28;20436;-78
2022/01/26 08:05:15;;;;;;;39.97;28.57;;;-0.80;99.90;;;;;;5051780;28;20473;-78
2022/01/26 08:07:42;;;;;;;34.83;26.77;;;-0.80;99.90;;;;;;5061198;28;20441;-78
2022/01/26 08:10:11;;;;;;;35.53;26.10;;;-0.70;99.90;;;;;;5060583;28;20527;-78
2022/01/26 08:12:38;;;;;;;40.10;30.00;;;-0.70;99.90;;;;;;5060833;28;20989;-78
2022/01/26 08:15:09;;;;;;;35.90;27.90;;;-0.70;99.90;;;;;;5061865;28;20530;-77
2022/01/26 08:17:37;;;;;;;37.53;28.07;;;-0.70;99.90;;;;;;5058662;28;21096;-78
2022/01/26 08:20:07;;;;;;;38.00;28.83;;;-0.70;99.90;;;;;;5055023;28;20452;-77
2022/01/26 08:22:34;;;;;;;35.83;29.67;;;-0.70;99.90;;;;;;5059899;28;20803;-78
2022/01/26 08:25:01;;;;;;;36.60;28.17;;;-0.70;99.90;;;;;;5059817;28;20532;-78
2022/01/26 08:27:33;;;;;;;40.87;30.60;;;-0.70;99.90;;;;;;5059386;28;20441;-78
2022/01/26 08:30:06;;;;;;;36.90;28.20;;;-0.70;99.90;;;;;;5059688;28;20477;-78
2022/01/26 08:32:34;;;;;;;37.23;29.53;;;-0.70;99.90;;;;;;5059576;28;20442;-78
2022/01/26 08:35:01;;;;;;;40.37;29.87;;;-0.60;99.90;;;;;;5061575;28;20464;-78
2022/01/26 08:37:28;;;;;;;45.57;30.53;;;-0.60;99.90;;;;;;5057922;28;20462;-78
2022/01/26 08:39:55;;;;;;;37.77;30.10;;;-0.60;99.90;;;;;;5059518;28;20430;-77
2022/01/26 08:42:22;;;;;;;33.27;28.30;;;-0.50;99.90;;;;;;5060928;28;20457;-79
2022/01/26 08:44:48;;;;;;;37.77;29.57;;;-0.50;99.90;;;;;;5062364;28;20552;-79
2022/01/26 08:47:15;;;;;;;37.93;29.17;;;-0.50;99.90;;;;;;5059536;28;20508;-78
2022/01/26 08:49:43;;;;;;;37.10;31.20;;;-0.40;99.90;;;;;;5062856;28;20469;-78
2022/01/26 08:52:10;;;;;;;37.20;30.27;;;-0.30;99.90;;;;;;5056589;28;20450;-78
2022/01/26 08:54:37;;;;;;;40.87;30.57;;;-0.30;99.90;;;;;;5059444;28;20993;-78
2022/01/26 08:57:04;;;;;;;43.00;29.17;;;-0.30;99.90;;;;;;5060064;28;20483;-78
2022/01/26 08:59:31;;;;;;;34.30;28.87;;;-0.30;99.90;;;;;;5058721;28;20523;-78
2022/01/26 09:01:58;;;;;;;34.50;29.17;;;-0.30;99.90;;;;;;5050815;28;20495;-78
2022/01/26 09:04:25;;;;;;;41.00;31.20;;;-0.20;99.90;;;;;;5060941;28;20464;-78
2022/01/26 09:06:56;;;;;;;38.53;31.23;;;-0.30;99.90;;;;;;5062228;28;20463;-77
2022/01/26 09:09:24;;;;;;;37.50;29.93;;;-0.20;99.90;;;;;;5058693;28;20504;-78
2022/01/26 09:11:53;;;;;;;38.50;29.97;;;-0.20;99.90;;;;;;5060047;28;20520;-78
2022/01/26 09:14:23;;;;;;;37.47;30.43;;;-0.20;99.90;;;;;;5061670;28;20496;-78
2022/01/26 09:16:53;;;;;;;35.33;29.03;;;-0.20;99.90;;;;;;5059099;28;20457;-79
2022/01/26 09:19:30;;;;;;;34.07;28.10;;;-0.10;99.90;;;;;;5060975;28;20495;-78
2022/01/26 09:22:00;;;;;;;34.13;29.23;;;-0.20;99.90;;;;;;5059884;28;20540;-78
2022/01/26 09:24:28;;;;;;;36.53;29.80;;;-0.10;99.90;;;;;;5050549;28;20813;-79
2022/01/26 09:26:55;;;;;;;37.50;30.37;;;-0.10;99.90;;;;;;5062293;28;20990;-78
2022/01/26 09:29:22;;;;;;;37.77;31.60;;;-0.10;99.90;;;;;;5056935;28;20813;-78
2022/01/26 09:31:49;;;;;;;34.93;30.53;;;0.00;99.90;;;;;;5062592;28;20432;-79
2022/01/26 09:34:17;;;;;;;36.97;30.30;;;0.10;99.90;;;;;;5064211;28;20473;-77
2022/01/26 09:36:44;;;;;;;36.63;30.70;;;0.10;99.90;;;;;;5052598;28;20839;-78
2022/01/26 09:39:13;;;;;;;38.57;31.03;;;0.10;99.90;;;;;;5063353;28;20433;-78
2022/01/26 09:41:44;;;;;;;39.57;30.57;;;0.10;99.90;;;;;;5060317;28;20576;-78
2022/01/26 09:44:11;;;;;;;36.77;30.20;;;0.10;99.90;;;;;;5062517;28;20523;-78
2022/01/26 09:46:39;;;;;;;37.53;30.27;;;0.10;99.90;;;;;;5065428;28;20515;-79
2022/01/26 09:49:06;;;;;;;34.80;29.50;;;0.10;99.90;;;;;;5059900;28;20435;-78
2022/01/26 09:51:40;;;;;;;42.97;32.43;;;0.20;99.90;;;;;;5063530;28;20859;-78
2022/01/26 09:54:11;;;;;;;41.43;31.70;;;0.10;99.90;;;;;;5062942;28;20441;-78
2022/01/26 09:56:39;;;;;;;40.03;30.63;;;0.00;99.90;;;;;;5061900;28;20470;-78
2022/01/26 09:59:07;;;;;;;36.43;28.73;;;0.20;99.90;;;;;;5061796;28;20460;-78
2022/01/26 10:01:41;;;;;;;39.37;28.93;;;0.30;99.90;;;;;;5052841;28;20541;-79
2022/01/26 10:04:18;;;;;;;38.60;29.80;;;0.40;99.90;;;;;;5066916;28;20482;-79
2022/01/26 10:06:48;;;;;;;43.43;28.67;;;0.40;99.90;;;;;;5055428;28;20469;-78
2022/01/26 10:17:42;;;;;;;36.83;29.80;;;0.50;99.90;;;;;;5062112;28;20442;-78
2022/01/26 10:20:14;;;;;;;37.10;31.87;;;0.50;99.90;;;;;;5067042;28;20982;-77
2022/01/26 10:22:42;;;;;;;41.50;32.37;;;0.60;99.90;;;;;;5061594;28;20473;-78
2022/01/26 10:25:12;;;;;;;38.57;31.13;;;0.60;99.90;;;;;;5062436;28;20512;-79
2022/01/26 10:27:42;;;;;;;39.73;31.13;;;0.70;99.90;;;;;;5071779;28;20429;-78
2022/01/26 10:30:12;;;;;;;39.03;30.23;;;0.70;99.90;;;;;;5062804;28;20519;-78
2022/01/26 10:32:41;;;;;;;36.23;30.13;;;0.70;99.90;;;;;;5061491;28;20928;-77
2022/01/26 10:35:08;;;;;;;32.63;28.93;;;0.80;99.90;;;;;;5063314;28;20986;-79
2022/01/26 10:37:35;;;;;;;35.03;29.43;;;0.90;99.90;;;;;;5053116;28;20448;-78
2022/01/26 10:40:12;;;;;;;37.30;30.20;;;0.90;99.90;;;;;;5062463;28;20459;-78
2022/01/26 10:42:40;;;;;;;39.07;30.70;;;0.90;99.90;;;;;;5062081;28;20988;-78
2022/01/26 10:45:13;;;;;;;36.07;28.43;;;1.00;99.90;;;;;;5062312;28;20465;-79
2022/01/26 10:47:41;;;;;;;37.63;29.90;;;1.10;99.90;;;;;;5060306;28;20447;-79
2022/01/26 10:50:46;;;;;;;36.93;29.70;;;1.10;99.90;;;;;;5062118;28;20480;-78
2022/01/26 10:53:16;;;;;;;34.33;29.03;;;1.20;99.90;;;;;;5062114;28;20531;-78
2022/01/26 10:55:44;;;;;;;35.30;30.50;;;1.20;99.90;;;;;;5061346;28;20453;-79
2022/01/26 10:58:16;;;;;;;34.70;30.13;;;1.30;99.90;;;;;;5062217;28;20446;-79
2022/01/26 11:00:43;;;;;;;36.47;30.50;;;1.30;99.90;;;;;;5069355;28;20464;-79
2022/01/26 11:03:11;;;;;;;37.03;29.83;;;1.00;99.90;;;;;;5067306;28;20438;-78
2022/01/26 11:05:38;;;;;;;35.87;29.80;;;1.10;99.90;;;;;;5060701;28;20452;-78
2022/01/26 11:08:09;;;;;;;32.43;27.43;;;1.10;99.90;;;;;;5058563;28;20990;-78
2022/01/26 11:10:38;;;;;;;35.07;29.23;;;1.20;99.90;;;;;;5059744;28;20988;-78
2022/01/26 11:13:07;;;;;;;32.97;27.43;;;1.30;99.90;;;;;;5062077;28;20437;-78
2022/01/26 11:15:35;;;;;;;33.43;28.10;;;1.40;99.90;;;;;;5059857;28;20472;-78
2022/01/26 11:18:08;;;;;;;36.67;31.33;;;1.40;99.90;;;;;;5069877;28;20425;-78
2022/01/26 11:20:49;;;;;;;36.47;28.87;;;1.30;99.90;;;;;;5060929;28;21014;-78
2022/01/26 11:23:19;;;;;;;35.27;28.80;;;1.30;99.90;;;;;;5061951;28;20948;-78
2022/01/26 11:25:48;;;;;;;34.33;28.70;;;1.30;99.90;;;;;;5061404;28;20459;-78
2022/01/26 11:28:17;;;;;;;36.03;29.90;;;1.30;99.90;;;;;;5062750;28;20440;-78
2022/01/26 11:30:45;;;;;;;34.03;29.03;;;1.40;99.90;;;;;;5058665;28;20969;-78
2022/01/26 11:33:17;;;;;;;34.83;29.60;;;1.40;99.90;;;;;;5061163;28;20448;-79
2022/01/26 11:35:48;;;;;;;35.80;30.30;;;1.30;99.90;;;;;;5060833;28;20464;-78
2022/01/26 11:46:53;;;;;;;38.67;30.23;;;1.30;99.90;;;;;;5056105;28;20482;-78
2022/01/26 11:49:27;;;;;;;36.87;29.87;;;1.30;99.90;;;;;;5054557;28;21026;-78
2022/01/26 11:51:57;;;;;;;39.83;31.53;;;1.40;99.90;;;;;;5063831;28;20522;-79
2022/01/26 11:54:26;;;;;;;41.40;31.87;;;1.30;99.90;;;;;;5060435;28;20444;-78
2022/01/26 11:56:58;;;;;;;36.13;31.20;;;1.30;99.90;;;;;;5060003;28;20461;-78
2022/01/26 11:59:27;;;;;;;41.37;32.73;;;1.30;99.90;;;;;;5062767;28;20447;-79
2022/01/26 12:02:00;;;;;;;38.20;29.87;;;1.30;99.90;;;;;;5060798;28;20436;-78
2022/01/26 12:04:31;;;;;;;39.93;30.40;;;1.30;99.90;;;;;;5056535;28;20429;-78
2022/01/26 12:07:09;;;;;;;42.03;32.40;;;1.30;99.90;;;;;;5053939;28;20479;-79
2022/01/26 12:09:38;;;;;;;42.60;31.77;;;1.30;99.90;;;;;;5060605;28;20508;-79
2022/01/26 12:12:06;;;;;;;40.47;31.10;;;1.30;99.90;;;;;;5058725;28;20508;-78
2022/01/26 12:14:34;;;;;;;37.67;31.63;;;1.30;99.90;;;;;;5061400;28;20462;-78
2022/01/26 12:17:09;;;;;;;43.67;32.87;;;1.40;99.90;;;;;;5061088;28;20447;-78
2022/01/26 12:19:39;;;;;;;41.30;32.17;;;1.30;99.90;;;;;;5050320;28;20522;-77
2022/01/26 12:33:50;;;;;;;44.77;33.60;;;1.40;99.90;;;;;;5063912;28;20434;-79
2022/01/26 12:36:36;;;;;;;45.57;33.03;;;1.40;99.90;;;;;;5067689;28;20459;-78
2022/01/26 12:39:10;;;;;;;43.27;33.50;;;1.40;99.90;;;;;;5064038;28;20431;-79
2022/01/26 12:41:45;;;;;;;42.73;32.43;;;1.50;99.90;;;;;;5060072;28;20463;-79
2022/01/26 12:44:13;;;;;;;50.30;33.87;;;1.60;99.90;;;;;;5056962;28;20437;-78
2022/01/26 12:46:41;;;;;;;42.80;33.30;;;1.70;99.90;;;;;;5059342;28;20483;-78
2022/01/26 12:49:13;;;;;;;44.47;32.77;;;1.60;99.90;;;;;;5061651;28;21023;-79
2022/01/26 12:51:43;;;;;;;42.70;32.57;;;1.50;99.90;;;;;;5059397;28;20476;-78
2022/01/26 12:54:10;;;;;;;45.83;33.87;;;1.40;99.90;;;;;;5061556;28;20488;-78
2022/01/26 12:56:37;;;;;;;42.87;32.37;;;1.40;99.90;;;;;;5061354;28;20469;-78
2022/01/26 12:59:06;;;;;;;47.87;34.10;;;1.50;99.90;;;;;;5052909;28;20514;-79
2022/01/26 13:01:33;;;;;;;41.57;31.73;;;1.40;99.90;;;;;;5068053;28;20852;-78
2022/01/26 13:04:02;;;;;;;44.53;32.73;;;1.50;99.90;;;;;;5059309;28;20965;-78
2022/01/26 13:06:34;;;;;;;42.40;31.23;;;1.50;99.90;;;;;;5064203;28;20462;-78
2022/01/26 13:09:02;;;;;;;43.73;32.90;;;1.50;99.90;;;;;;5063948;28;20527;-78
2022/01/26 13:11:32;;;;;;;45.83;34.27;;;1.50;99.90;;;;;;5062701;28;20842;-77
2022/01/26 13:14:15;;;;;;;42.53;33.00;;;1.50;99.90;;;;;;5064161;28;20540;-78
2022/01/26 13:16:46;;;;;;;46.97;34.63;;;1.40;99.90;;;;;;5063539;28;20477;-78
2022/01/26 13:19:29;;;;;;;43.20;33.47;;;1.40;99.90;;;;;;5066686;28;20445;-78
2022/01/26 13:25:05;;;;;;;44.20;32.30;;;1.50;99.90;;;;;;5028958;28;20466;-77
2022/01/26 13:27:47;;;;;;;48.40;35.87;;;1.40;99.90;;;;;;5061242;28;20577;-78
2022/01/26 13:30:32;;;;;;;57.67;37.33;;;1.30;99.90;;;;;;5060236;28;21029;-78
2022/01/26 13:33:40;;;;;;;46.60;33.27;;;1.20;99.90;;;;;;5067513;28;20531;-78
2022/01/26 13:36:14;;;;;;;49.13;34.00;;;1.10;99.90;;;;;;5067879;28;20532;-78
2022/01/26 13:39:02;;;;;;;44.90;32.67;;;1.10;99.90;;;;;;5060977;28;20478;-78
2022/01/26 13:41:39;;;;;;;51.13;34.53;;;1.20;99.90;;;;;;5062652;28;20442;-78
2022/01/26 13:50:09;;;;;;;47.50;35.30;;;1.30;99.90;;;;;;5054736;28;20810;-78
2022/01/26 13:52:41;;;;;;;48.93;34.83;;;1.40;99.90;;;;;;5062602;28;20475;-78
2022/01/26 14:00:31;;;;;;;49.13;33.43;;;1.40;99.90;;;;;;5062428;28;20426;-78
2022/01/26 14:03:01;;;;;;;52.60;35.80;;;1.40;99.90;;;;;;5063516;28;20442;-82
2022/01/26 14:05:28;;;;;;;44.27;33.93;;;1.30;99.90;;;;;;5060539;28;20922;-79
2022/01/26 14:07:56;;;;;;;45.33;35.90;;;1.30;99.90;;;;;;5064613;28;20459;-80
2022/01/26 14:10:25;;;;;;;45.17;33.33;;;1.30;99.90;;;;;;5062249;28;20504;-79
2022/01/26 14:12:52;;;;;;;41.33;31.67;;;1.30;99.90;;;;;;5062895;28;20424;-78
2022/01/26 14:15:24;;;;;;;39.60;31.13;;;1.30;99.90;;;;;;5054543;28;20505;-80
2022/01/26 14:18:08;;;;;;;40.77;32.30;;;1.30;99.90;;;;;;5065273;28;20439;-78
2022/01/26 14:20:52;;;;;;;45.60;33.33;;;1.30;99.90;;;;;;5067370;28;20789;-81
2022/01/26 14:26:01;;;;;;;39.43;31.27;;;1.40;99.90;;;;;;5049870;28;20984;-79
2022/01/26 14:28:33;;;;;;;43.70;33.63;;;1.40;99.90;;;;;;5057202;28;20441;-79
2022/01/26 14:31:21;;;;;;;42.77;31.37;;;1.40;99.90;;;;;;5061695;28;20571;-80
2022/01/26 14:34:23;;;;;;;43.57;31.10;;;1.30;99.90;;;;;;5062415;28;20444;-79
2022/01/26 14:39:27;;;;;;;40.37;31.50;;;1.40;99.90;;;;;;5061434;28;20500;-79
2022/01/26 14:40:24;;;;;;;39.67;30.57;;;1.40;99.90;;;;;;5061793;28;20816;-79
2022/01/26 14:51:10;;;;;;;45.53;31.47;;;1.30;99.90;;;;;;5034211;28;20467;-79